Main page
METAR-TAF:

METAR-TAF

Airports :

Araxos Airport

Araxos, Greece

latitude: 38-09N, longitude: 021-25E, elevation: 11 m

Current weather observation

The report was made 23 minutes ago, at 02:50 UTC
Wind 6 kt from the Northeast
Temperature 18°C
Humidity 77%
Pressure 1019 hPa
Visibility 10 km or more
Few clouds at a height of 8000 ft

METAR: LGRX 160250Z 04006KT 9999 FEW080 18/14 Q1019

Time: 06:13 (03:13 UTC)

Forecast

The report was made 1 hour and 13 minutes ago, at 02:00 UTC
Forecast valid from 16 at 03 UTC to 16 at 12 UTC
Wind 10 kt from the Northeast
Visibility 10 km or more
Few clouds at a height of 2500 ft

TAF: LGRX 160200Z 1603/1612 04010KT 9999 FEW025

Weather observations and forecasts of more than 4000 airports (METAR and TAF reports).

The available stations are represented by yellow and red dots on the map.

Hover mouse over dot to see the name of the station.

Then click to see weather observations and forecasts.

To change the map : click on the green buttons with a black cross to zoom in, on the green button with a dash to zoom out, or on the green arrows for adjacent maps.


METAR-TAF: